sensor_id;sensor_type;location;lat;lon;timestamp;P1;durP1;ratioP1;P2;durP2;ratioP2
56631;SDS011;42503;39.928;-75.152;2023-06-05T00:02:18;2.85;;;2.58;;
56631;SDS011;42503;39.928;-75.152;2023-06-05T00:12:19;3.50;;;2.85;;
56631;SDS011;42503;39.928;-75.152;2023-06-05T00:22:20;3.15;;;2.85;;
56631;SDS011;42503;39.928;-75.152;2023-06-05T00:32:22;3.33;;;3.03;;
56631;SDS011;42503;39.928;-75.152;2023-06-05T00:42:26;2.70;;;2.45;;
56631;SDS011;42503;39.928;-75.152;2023-06-05T00:52:28;4.00;;;2.55;;
56631;SDS011;42503;39.928;-75.152;2023-06-05T01:02:29;2.80;;;2.50;;
56631;SDS011;42503;39.928;-75.152;2023-06-05T01:22:54;2.88;;;2.63;;
56631;SDS011;42503;39.928;-75.152;2023-06-05T01:33:02;2.78;;;2.58;;
56631;SDS011;42503;39.928;-75.152;2023-06-05T01:43:13;2.13;;;1.92;;
56631;SDS011;42503;39.928;-75.152;2023-06-05T01:53:16;2.30;;;2.10;;
56631;SDS011;42503;39.928;-75.152;2023-06-05T02:03:20;2.53;;;2.33;;
56631;SDS011;42503;39.928;-75.152;2023-06-05T02:13:24;2.90;;;2.30;;
56631;SDS011;42503;39.928;-75.152;2023-06-05T02:23:25;2.50;;;2.30;;
56631;SDS011;42503;39.928;-75.152;2023-06-05T02:33:27;2.30;;;2.10;;
56631;SDS011;42503;39.928;-75.152;2023-06-05T02:43:29;2.40;;;2.20;;
56631;SDS011;42503;39.928;-75.152;2023-06-05T02:53:30;2.20;;;2.00;;
56631;SDS011;42503;39.928;-75.152;2023-06-05T03:03:32;2.78;;;2.47;;
56631;SDS011;42503;39.928;-75.152;2023-06-05T03:13:36;2.95;;;2.10;;
56631;SDS011;42503;39.928;-75.152;2023-06-05T03:23:38;2.65;;;2.42;;
56631;SDS011;42503;39.928;-75.152;2023-06-05T03:33:39;3.08;;;2.47;;
56631;SDS011;42503;39.928;-75.152;2023-06-05T03:43:40;2.05;;;1.85;;
56631;SDS011;42503;39.928;-75.152;2023-06-05T03:53:42;3.28;;;2.60;;
56631;SDS011;42503;39.928;-75.152;2023-06-05T04:03:44;2.67;;;2.10;;
56631;SDS011;42503;39.928;-75.152;2023-06-05T04:13:45;2.95;;;2.65;;
56631;SDS011;42503;39.928;-75.152;2023-06-05T04:23:50;2.30;;;2.10;;
56631;SDS011;42503;39.928;-75.152;2023-06-05T04:33:52;2.42;;;2.10;;
56631;SDS011;42503;39.928;-75.152;2023-06-05T04:43:58;2.97;;;2.20;;
56631;SDS011;42503;39.928;-75.152;2023-06-05T04:54:01;2.35;;;2.15;;
56631;SDS011;42503;39.928;-75.152;2023-06-05T05:04:05;2.13;;;1.83;;
56631;SDS011;42503;39.928;-75.152;2023-06-05T05:14:07;2.85;;;2.50;;
56631;SDS011;42503;39.928;-75.152;2023-06-05T05:24:08;2.28;;;2.05;;
56631;SDS011;42503;39.928;-75.152;2023-06-05T05:34:10;2.63;;;2.20;;
56631;SDS011;42503;39.928;-75.152;2023-06-05T05:44:11;2.33;;;2.10;;
56631;SDS011;42503;39.928;-75.152;2023-06-05T05:54:13;1.88;;;1.70;;
56631;SDS011;42503;39.928;-75.152;2023-06-05T06:04:17;2.28;;;2.00;;
56631;SDS011;42503;39.928;-75.152;2023-06-05T06:14:25;2.42;;;2.22;;
56631;SDS011;42503;39.928;-75.152;2023-06-05T06:24:35;3.22;;;2.20;;
56631;SDS011;42503;39.928;-75.152;2023-06-05T06:34:36;2.20;;;2.00;;
56631;SDS011;42503;39.928;-75.152;2023-06-05T06:44:38;3.10;;;2.53;;
56631;SDS011;42503;39.928;-75.152;2023-06-05T06:54:40;2.97;;;2.20;;
56631;SDS011;42503;39.928;-75.152;2023-06-05T07:04:42;2.58;;;2.38;;
56631;SDS011;42503;39.928;-75.152;2023-06-05T07:14:46;2.15;;;1.88;;
56631;SDS011;42503;39.928;-75.152;2023-06-05T07:24:52;2.28;;;2.08;;
56631;SDS011;42503;39.928;-75.152;2023-06-05T07:34:54;2.85;;;2.05;;
56631;SDS011;42503;39.928;-75.152;2023-06-05T07:45:01;2.45;;;2.25;;
56631;SDS011;42503;39.928;-75.152;2023-06-05T07:55:06;2.75;;;2.10;;
56631;SDS011;42503;39.928;-75.152;2023-06-05T08:05:08;2.45;;;2.03;;
56631;SDS011;42503;39.928;-75.152;2023-06-05T08:15:12;2.28;;;2.00;;
56631;SDS011;42503;39.928;-75.152;2023-06-05T08:25:13;2.50;;;2.30;;
56631;SDS011;42503;39.928;-75.152;2023-06-05T08:35:15;2.88;;;2.40;;
56631;SDS011;42503;39.928;-75.152;2023-06-05T08:45:16;2.00;;;1.80;;
56631;SDS011;42503;39.928;-75.152;2023-06-05T08:55:17;3.72;;;2.35;;
56631;SDS011;42503;39.928;-75.152;2023-06-05T09:05:19;3.25;;;2.42;;
56631;SDS011;42503;39.928;-75.152;2023-06-05T09:15:21;3.13;;;2.15;;
56631;SDS011;42503;39.928;-75.152;2023-06-05T09:25:37;2.43;;;2.20;;
56631;SDS011;42503;39.928;-75.152;2023-06-05T09:35:46;2.38;;;2.13;;
56631;SDS011;42503;39.928;-75.152;2023-06-05T09:45:50;2.40;;;2.20;;
56631;SDS011;42503;39.928;-75.152;2023-06-05T09:55:51;3.08;;;2.38;;
56631;SDS011;42503;39.928;-75.152;2023-06-05T10:05:52;2.75;;;2.55;;
56631;SDS011;42503;39.928;-75.152;2023-06-05T10:15:55;2.50;;;2.30;;
56631;SDS011;42503;39.928;-75.152;2023-06-05T10:25:56;2.50;;;2.30;;
56631;SDS011;42503;39.928;-75.152;2023-06-05T10:36:10;2.55;;;2.20;;
56631;SDS011;42503;39.928;-75.152;2023-06-05T10:46:32;2.65;;;2.42;;
56631;SDS011;42503;39.928;-75.152;2023-06-05T11:17:41;2.47;;;2.08;;
56631;SDS011;42503;39.928;-75.152;2023-06-05T11:27:45;2.28;;;2.03;;
56631;SDS011;42503;39.928;-75.152;2023-06-05T11:37:47;2.30;;;2.10;;
56631;SDS011;42503;39.928;-75.152;2023-06-05T11:47:49;2.78;;;2.35;;
56631;SDS011;42503;39.928;-75.152;2023-06-05T11:57:50;2.60;;;2.10;;
56631;SDS011;42503;39.928;-75.152;2023-06-05T12:07:52;2.10;;;1.90;;
56631;SDS011;42503;39.928;-75.152;2023-06-05T12:17:54;2.53;;;1.85;;
56631;SDS011;42503;39.928;-75.152;2023-06-05T12:27:57;2.92;;;2.50;;
56631;SDS011;42503;39.928;-75.152;2023-06-05T12:37:59;2.13;;;1.92;;
56631;SDS011;42503;39.928;-75.152;2023-06-05T12:48:01;2.03;;;1.73;;
56631;SDS011;42503;39.928;-75.152;2023-06-05T12:58:02;2.10;;;1.90;;
56631;SDS011;42503;39.928;-75.152;2023-06-05T13:08:04;1.75;;;1.42;;
56631;SDS011;42503;39.928;-75.152;2023-06-05T13:18:05;1.60;;;1.50;;
56631;SDS011;42503;39.928;-75.152;2023-06-05T13:28:08;1.70;;;1.48;;
56631;SDS011;42503;39.928;-75.152;2023-06-05T13:38:09;1.55;;;1.45;;
56631;SDS011;42503;39.928;-75.152;2023-06-05T13:48:11;2.17;;;1.60;;
56631;SDS011;42503;39.928;-75.152;2023-06-05T13:58:12;1.25;;;1.15;;
56631;SDS011;42503;39.928;-75.152;2023-06-05T14:08:14;1.70;;;1.50;;
56631;SDS011;42503;39.928;-75.152;2023-06-05T14:18:15;1.63;;;1.40;;
56631;SDS011;42503;39.928;-75.152;2023-06-05T14:28:19;2.08;;;1.27;;
56631;SDS011;42503;39.928;-75.152;2023-06-05T14:38:22;1.20;;;1.10;;
56631;SDS011;42503;39.928;-75.152;2023-06-05T14:48:24;1.55;;;1.20;;
56631;SDS011;42503;39.928;-75.152;2023-06-05T14:58:25;1.63;;;1.20;;
56631;SDS011;42503;39.928;-75.152;2023-06-05T15:08:26;1.63;;;1.15;;
56631;SDS011;42503;39.928;-75.152;2023-06-05T15:18:28;1.50;;;1.30;;
56631;SDS011;42503;39.928;-75.152;2023-06-05T15:28:29;1.10;;;1.00;;
56631;SDS011;42503;39.928;-75.152;2023-06-05T15:38:30;2.75;;;1.30;;
56631;SDS011;42503;39.928;-75.152;2023-06-05T15:48:32;1.48;;;1.30;;
56631;SDS011;42503;39.928;-75.152;2023-06-05T15:58:34;1.08;;;1.00;;
56631;SDS011;42503;39.928;-75.152;2023-06-05T16:08:44;1.20;;;1.10;;
56631;SDS011;42503;39.928;-75.152;2023-06-05T16:18:45;1.40;;;0.98;;
56631;SDS011;42503;39.928;-75.152;2023-06-05T16:28:47;0.98;;;0.90;;
56631;SDS011;42503;39.928;-75.152;2023-06-05T16:38:48;1.75;;;0.90;;
56631;SDS011;42503;39.928;-75.152;2023-06-05T16:48:50;2.58;;;0.85;;
56631;SDS011;42503;39.928;-75.152;2023-06-05T16:58:54;1.73;;;0.85;;
56631;SDS011;42503;39.928;-75.152;2023-06-05T17:08:57;0.98;;;0.90;;
56631;SDS011;42503;39.928;-75.152;2023-06-05T17:18:59;1.13;;;0.85;;
56631;SDS011;42503;39.928;-75.152;2023-06-05T17:29:00;1.00;;;0.90;;
56631;SDS011;42503;39.928;-75.152;2023-06-05T17:39:02;0.90;;;0.85;;
56631;SDS011;42503;39.928;-75.152;2023-06-05T17:49:03;1.13;;;1.02;;
56631;SDS011;42503;39.928;-75.152;2023-06-05T17:59:04;0.93;;;0.80;;
56631;SDS011;42503;39.928;-75.152;2023-06-05T18:09:07;1.48;;;0.70;;
56631;SDS011;42503;39.928;-75.152;2023-06-05T18:19:09;1.00;;;0.90;;
56631;SDS011;42503;39.928;-75.152;2023-06-05T18:29:10;0.82;;;0.77;;
56631;SDS011;42503;39.928;-75.152;2023-06-05T18:39:12;0.98;;;0.77;;
56631;SDS011;42503;39.928;-75.152;2023-06-05T18:49:14;1.02;;;0.70;;
56631;SDS011;42503;39.928;-75.152;2023-06-05T18:59:18;1.48;;;1.00;;
56631;SDS011;42503;39.928;-75.152;2023-06-05T19:09:20;1.33;;;0.90;;
56631;SDS011;42503;39.928;-75.152;2023-06-05T19:19:22;0.70;;;0.70;;
56631;SDS011;42503;39.928;-75.152;2023-06-05T19:29:23;0.70;;;0.70;;
56631;SDS011;42503;39.928;-75.152;2023-06-05T19:39:25;0.80;;;0.75;;
56631;SDS011;42503;39.928;-75.152;2023-06-05T19:49:28;1.30;;;0.90;;
56631;SDS011;42503;39.928;-75.152;2023-06-05T19:59:32;1.42;;;0.90;;
56631;SDS011;42503;39.928;-75.152;2023-06-05T20:09:33;1.38;;;1.00;;
56631;SDS011;42503;39.928;-75.152;2023-06-05T20:19:35;0.80;;;0.80;;
56631;SDS011;42503;39.928;-75.152;2023-06-05T20:29:36;0.98;;;0.88;;
56631;SDS011;42503;39.928;-75.152;2023-06-05T20:39:38;1.20;;;0.80;;
56631;SDS011;42503;39.928;-75.152;2023-06-05T20:49:41;1.70;;;1.05;;
56631;SDS011;42503;39.928;-75.152;2023-06-05T20:59:42;0.88;;;0.88;;
56631;SDS011;42503;39.928;-75.152;2023-06-05T21:09:44;1.95;;;1.05;;
56631;SDS011;42503;39.928;-75.152;2023-06-05T21:19:47;1.90;;;1.25;;
56631;SDS011;42503;39.928;-75.152;2023-06-05T21:29:49;2.65;;;1.10;;
56631;SDS011;42503;39.928;-75.152;2023-06-05T21:39:50;0.98;;;0.88;;
56631;SDS011;42503;39.928;-75.152;2023-06-05T21:49:52;0.90;;;0.80;;
56631;SDS011;42503;39.928;-75.152;2023-06-05T21:59:53;0.98;;;0.70;;
56631;SDS011;42503;39.928;-75.152;2023-06-05T22:09:55;1.10;;;1.00;;
56631;SDS011;42503;39.928;-75.152;2023-06-05T22:19:58;1.98;;;1.27;;
56631;SDS011;42503;39.928;-75.152;2023-06-05T22:30:09;1.83;;;1.25;;
56631;SDS011;42503;39.928;-75.152;2023-06-05T22:40:14;1.25;;;1.00;;
56631;SDS011;42503;39.928;-75.152;2023-06-05T22:50:15;1.58;;;1.33;;
56631;SDS011;42503;39.928;-75.152;2023-06-05T23:00:17;1.27;;;1.17;;
56631;SDS011;42503;39.928;-75.152;2023-06-05T23:10:20;1.23;;;1.13;;
56631;SDS011;42503;39.928;-75.152;2023-06-05T23:30:29;2.40;;;1.58;;
56631;SDS011;42503;39.928;-75.152;2023-06-05T23:40:30;1.52;;;1.38;;
56631;SDS011;42503;39.928;-75.152;2023-06-05T23:50:32;1.33;;;1.23;;
